Wetterdaten: aktuell Donnerstag, 07.05.2026 16:39
Datum Zeit Temp. A. Feuchte A. Luftdruck Regen Wind Richtung Richtung Taupunkt Windchill
07.05.2026 16:39 15,0 °C 55 % 1008,2 hPa 0,0 l/m² 5,4 km/h (1 Bft) S-SO±22.5° 150 ° 6,0 °C 15,0 °C
07.05.2026 16:37 14,9 °C 55 % 1008,2 hPa 0,0 l/m² 5,4 km/h (1 Bft) S-SO±22.5° 150 ° 5,9 °C 14,9 °C
07.05.2026 16:35 14,8 °C 55 % 1008,2 hPa 0,0 l/m² 1,5 km/h (1 Bft) S-SO 160 ° 5,8 °C 14,8 °C
07.05.2026 16:33 14,8 °C 55 % 1008,2 hPa 0,0 l/m² 1,5 km/h (1 Bft) S-SO 160 ° 5,8 °C 14,8 °C
07.05.2026 16:31 14,7 °C 54 % 1008,2 hPa 0,0 l/m² 1,5 km/h (1 Bft) S-SO 160 ° 5,5 °C 14,7 °C
07.05.2026 16:29 14,7 °C 54 % 1008,2 hPa 0,0 l/m² 1,0 km/h (0 Bft) S-SO 150 ° 5,5 °C 14,7 °C
07.05.2026 16:27 14,7 °C 54 % 1008,2 hPa 0,0 l/m² 0,3 km/h (0 Bft) S-SO 150 ° 5,5 °C 14,7 °C
07.05.2026 16:25 14,7 °C 53 % 1008,2 hPa 0,0 l/m² 0,2 km/h (0 Bft) S-SO 155 ° 5,2 °C 14,7 °C
07.05.2026 16:23 14,7 °C 53 % 1008,2 hPa 0,0 l/m² 0,2 km/h (0 Bft) S-SO 155 ° 5,2 °C 14,7 °C
07.05.2026 16:21 14,7 °C 53 % 1008,2 hPa 0,0 l/m² 1,5 km/h (1 Bft) S-SO 155 ° 5,2 °C 14,7 °C
07.05.2026 16:19 14,7 °C 55 % 1008,2 hPa 0,0 l/m² 0,4 km/h (0 Bft) S-SO 155 ° 5,8 °C 14,7 °C
07.05.2026 16:17 14,7 °C 55 % 1008,2 hPa 0,0 l/m² 0,3 km/h (0 Bft) S-SO 150 ° 5,8 °C 14,7 °C
07.05.2026 16:14 14,7 °C 55 % 1008,2 hPa 0,0 l/m² 0,3 km/h (0 Bft) S-SO 150 ° 5,8 °C 14,7 °C
07.05.2026 16:13 14,7 °C 55 % 1008,2 hPa 0,0 l/m² 0,0 km/h (0 Bft) SO 145 ° 5,8 °C 14,7 °C
07.05.2026 16:11 14,7 °C 57 % 1008,2 hPa 0,0 l/m² 0,0 km/h (0 Bft) SO 145 ° 6,3 °C 14,7 °C
07.05.2026 16:09 14,7 °C 57 % 1008,2 hPa 0,0 l/m² 0,0 km/h (0 Bft) SO 145 ° 6,3 °C 14,7 °C
07.05.2026 16:07 14,7 °C 57 % 1008,2 hPa 0,0 l/m² 0,6 km/h (0 Bft) SO 135 ° 6,3 °C 14,7 °C
07.05.2026 16:05 14,6 °C 57 % 1008,2 hPa 0,0 l/m² 1,1 km/h (1 Bft) SO 130 ° 6,2 °C 14,6 °C
07.05.2026 16:03 14,6 °C 57 % 1008,2 hPa 0,0 l/m² 5,6 km/h (1 Bft) N-NW±22.5° 335 ° 6,2 °C 14,6 °C
07.05.2026 16:01 14,5 °C 57 % 1008,2 hPa 0,0 l/m² 5,6 km/h (1 Bft) N-NW±22.5° 335 ° 6,1 °C 14,5 °C
07.05.2026 15:59 14,4 °C 56 % 1008,3 hPa 0,0 l/m² 0,1 km/h (0 Bft) NW 320 ° 5,7 °C 14,4 °C
07.05.2026 15:57 14,4 °C 56 % 1008,3 hPa 0,0 l/m² 0,9 km/h (0 Bft) NW 320 ° 5,7 °C 14,4 °C
07.05.2026 15:55 14,4 °C 56 % 1008,3 hPa 0,0 l/m² 3,2 km/h (1 Bft) NW 320 ° 5,7 °C 14,4 °C
07.05.2026 15:53 14,4 °C 56 % 1008,3 hPa 0,0 l/m² 3,2 km/h (1 Bft) NW 320 ° 5,7 °C 14,4 °C
07.05.2026 15:51 14,3 °C 56 % 1008,3 hPa 0,0 l/m² 0,9 km/h (0 Bft) NW 320 ° 5,6 °C 14,3 °C
07.05.2026 15:49 14,3 °C 56 % 1008,3 hPa 0,0 l/m² 0,9 km/h (0 Bft) O±45° 85 ° 5,6 °C 14,3 °C
07.05.2026 15:47 14,3 °C 57 % 1008,3 hPa 0,0 l/m² 0,9 km/h (0 Bft) O±45° 85 ° 5,9 °C 14,3 °C
07.05.2026 15:45 14,3 °C 56 % 1008,3 hPa 0,0 l/m² 3,2 km/h (1 Bft) N±67.5° 360 ° 5,6 °C 14,3 °C
07.05.2026 15:43 14,3 °C 56 % 1008,3 hPa 0,0 l/m² 1,7 km/h (1 Bft) W-NW 300 ° 5,6 °C 14,3 °C
07.05.2026 15:41 14,3 °C 56 % 1008,3 hPa 0,0 l/m² 1,7 km/h (1 Bft) W-NW 300 ° 5,6 °C 14,3 °C
07.05.2026 15:39 14,4 °C 57 % 1008,3 hPa 0,0 l/m² 1,7 km/h (1 Bft) W-NW 300 ° 6,0 °C 14,4 °C
07.05.2026 15:37 14,4 °C 57 % 1008,3 hPa 0,0 l/m² 3,5 km/h (1 Bft) SO 135 ° 6,0 °C 14,4 °C
07.05.2026 15:34 14,4 °C 57 % 1008,3 hPa 0,0 l/m² 3,5 km/h (1 Bft) SO 135 ° 6,0 °C 14,4 °C
07.05.2026 15:32 14,4 °C 58 % 1008,3 hPa 0,0 l/m² 2,0 km/h (1 Bft) S-SO±67.5° 165 ° 6,2 °C 14,4 °C
07.05.2026 15:30 14,4 °C 58 % 1008,3 hPa 0,0 l/m² 2,0 km/h (1 Bft) S-SO±67.5° 165 ° 6,2 °C 14,4 °C
07.05.2026 15:29 14,4 °C 59 % 1008,3 hPa 0,0 l/m² 3,3 km/h (1 Bft) SO±22.5° 145 ° 6,5 °C 14,4 °C
07.05.2026 15:27 14,4 °C 59 % 1008,3 hPa 0,0 l/m² 1,0 km/h (0 Bft) O±45° 100 ° 6,5 °C 14,4 °C
07.05.2026 15:25 14,4 °C 59 % 1008,3 hPa 0,0 l/m² 1,0 km/h (0 Bft) O±45° 100 ° 6,5 °C 14,4 °C
07.05.2026 15:23 14,3 °C 58 % 1008,3 hPa 0,0 l/m² 1,0 km/h (0 Bft) O±45° 100 ° 6,2 °C 14,3 °C
07.05.2026 15:21 14,2 °C 60 % 1008,3 hPa 0,0 l/m² 4,6 km/h (1 Bft) O-SO±45° 110 ° 6,5 °C 14,2 °C
07.05.2026 15:19 14,2 °C 60 % 1008,3 hPa 0,0 l/m² 5,6 km/h (1 Bft) S-SO±22.5° 150 ° 6,5 °C 14,2 °C
_ Min-Zeit 04:55 16:21 00:01 - 01:11 - - 16:21 03:35
Minimum _ 10,4 °C 53 % 1001,2 hPa - 0,0 km/h (0 Bft) - - 5,2 °C 9,0 °C
_ Max-Zeit 16:39 05:41 14:21 05:03 03:35 - - 05:53 16:39
Maximum _ 15,0 °C 87 % 1008,3 hPa 0,4 l/m² 10,0 km/h
NW (2 Bft)
- - 8,5 °C 15,0 °C
Durchschnitt _ 11,9 °C 73 % 1005,2 hPa #0,4 l/m² 2,0 km/h (1 Bft) NW - 7,1 °C 11,9 °C